sensor_id;sensor_type;location;lat;lon;timestamp;pressure;altitude;pressure_sealevel;temperature;humidity
43553;BME280;29153;42.696;23.218;2023-05-29T00:00:52;94264.23;;;11.45;100.00
43553;BME280;29153;42.696;23.218;2023-05-29T00:03:20;94264.30;;;11.40;100.00
43553;BME280;29153;42.696;23.218;2023-05-29T00:05:48;94266.21;;;11.34;100.00
43553;BME280;29153;42.696;23.218;2023-05-29T00:08:15;94269.39;;;11.34;100.00
43553;BME280;29153;42.696;23.218;2023-05-29T00:10:43;94263.92;;;11.28;100.00
43553;BME280;29153;42.696;23.218;2023-05-29T00:13:11;94265.25;;;11.25;100.00
43553;BME280;29153;42.696;23.218;2023-05-29T00:15:41;94264.55;;;11.20;100.00
43553;BME280;29153;42.696;23.218;2023-05-29T00:18:09;94271.23;;;11.15;100.00
43553;BME280;29153;42.696;23.218;2023-05-29T00:20:36;94268.00;;;11.18;100.00
43553;BME280;29153;42.696;23.218;2023-05-29T00:23:04;94212.03;;;10.74;100.00
43553;BME280;29153;42.696;23.218;2023-05-29T00:25:33;94277.95;;;11.05;100.00
43553;BME280;29153;42.696;23.218;2023-05-29T00:28:00;94277.11;;;11.09;100.00
43553;BME280;29153;42.696;23.218;2023-05-29T00:30:28;94274.72;;;11.10;100.00
43553;BME280;29153;42.696;23.218;2023-05-29T00:32:55;94275.00;;;11.09;100.00
43553;BME280;29153;42.696;23.218;2023-05-29T00:35:23;94266.34;;;11.01;100.00
43553;BME280;29153;42.696;23.218;2023-05-29T00:37:53;94265.80;;;11.04;100.00
43553;BME280;29153;42.696;23.218;2023-05-29T00:40:21;94269.77;;;11.04;100.00
43553;BME280;29153;42.696;23.218;2023-05-29T00:42:48;94265.72;;;11.09;100.00
43553;BME280;29153;42.696;23.218;2023-05-29T00:45:16;94264.13;;;11.10;100.00
43553;BME280;29153;42.696;23.218;2023-05-29T00:47:45;94269.37;;;11.15;100.00
43553;BME280;29153;42.696;23.218;2023-05-29T00:50:13;94269.37;;;11.15;100.00
43553;BME280;29153;42.696;23.218;2023-05-29T00:52:45;94265.88;;;11.17;100.00
43553;BME280;29153;42.696;23.218;2023-05-29T00:55:13;94262.64;;;11.23;100.00
43553;BME280;29153;42.696;23.218;2023-05-29T00:57:43;94257.86;;;11.25;100.00
43553;BME280;29153;42.696;23.218;2023-05-29T01:00:12;94257.03;;;11.27;100.00
43553;BME280;29153;42.696;23.218;2023-05-29T01:02:42;94251.67;;;11.32;100.00
43553;BME280;29153;42.696;23.218;2023-05-29T01:05:12;94260.78;;;11.23;100.00
43553;BME280;29153;42.696;23.218;2023-05-29T01:07:39;94254.12;;;11.26;100.00
43553;BME280;29153;42.696;23.218;2023-05-29T01:10:08;94248.91;;;11.18;100.00
43553;BME280;29153;42.696;23.218;2023-05-29T01:15:45;94246.78;;;11.20;100.00
43553;BME280;29153;42.696;23.218;2023-05-29T01:21:12;94255.86;;;11.14;100.00
43553;BME280;29153;42.696;23.218;2023-05-29T01:23:59;94254.31;;;11.11;100.00
43553;BME280;29153;42.696;23.218;2023-05-29T01:29:02;94268.36;;;11.11;100.00
43553;BME280;29153;42.696;23.218;2023-05-29T01:31:30;94275.61;;;11.03;100.00
43553;BME280;29153;42.696;23.218;2023-05-29T01:33:59;94265.06;;;10.95;100.00
43553;BME280;29153;42.696;23.218;2023-05-29T01:36:27;94273.31;;;10.94;100.00
43553;BME280;29153;42.696;23.218;2023-05-29T01:38:56;94265.06;;;10.95;100.00
43553;BME280;29153;42.696;23.218;2023-05-29T01:41:25;94261.65;;;10.95;100.00
43553;BME280;29153;42.696;23.218;2023-05-29T01:43:54;94264.47;;;11.04;100.00
43553;BME280;29153;42.696;23.218;2023-05-29T01:46:23;94267.66;;;11.03;100.00
43553;BME280;29153;42.696;23.218;2023-05-29T01:48:54;94262.05;;;11.05;100.00
43553;BME280;29153;42.696;23.218;2023-05-29T01:51:24;94263.38;;;11.05;100.00
43553;BME280;29153;42.696;23.218;2023-05-29T01:53:52;94258.28;;;11.11;100.00
43553;BME280;29153;42.696;23.218;2023-05-29T01:56:20;94262.74;;;11.15;100.00
43553;BME280;29153;42.696;23.218;2023-05-29T01:58:49;94252.62;;;11.20;100.00
43553;BME280;29153;42.696;23.218;2023-05-29T02:01:18;94262.37;;;11.24;100.00
43553;BME280;29153;42.696;23.218;2023-05-29T02:03:47;94257.08;;;11.24;100.00
43553;BME280;29153;42.696;23.218;2023-05-29T02:06:14;94252.95;;;11.34;100.00
43553;BME280;29153;42.696;23.218;2023-05-29T02:08:42;94253.11;;;11.43;100.00
43553;BME280;29153;42.696;23.218;2023-05-29T02:11:09;94247.26;;;11.46;100.00
43553;BME280;29153;42.696;23.218;2023-05-29T02:13:37;94187.72;;;11.15;100.00
43553;BME280;29153;42.696;23.218;2023-05-29T02:16:05;94252.39;;;11.59;100.00
43553;BME280;29153;42.696;23.218;2023-05-29T02:18:33;94245.77;;;11.59;100.00
43553;BME280;29153;42.696;23.218;2023-05-29T02:21:01;94243.80;;;11.64;100.00
43553;BME280;29153;42.696;23.218;2023-05-29T02:23:28;94240.55;;;11.70;100.00
43553;BME280;29153;42.696;23.218;2023-05-29T02:25:56;94243.74;;;11.69;100.00
43553;BME280;29153;42.696;23.218;2023-05-29T02:28:23;94247.47;;;11.68;100.00
43553;BME280;29153;42.696;23.218;2023-05-29T02:30:51;94245.84;;;11.72;100.00
43553;BME280;29153;42.696;23.218;2023-05-29T02:33:18;94248.80;;;11.68;100.00
43553;BME280;29153;42.696;23.218;2023-05-29T02:35:46;94245.07;;;11.69;100.00
43553;BME280;29153;42.696;23.218;2023-05-29T02:38:14;94244.86;;;11.66;100.00
43553;BME280;29153;42.696;23.218;2023-05-29T02:40:42;94244.98;;;11.56;100.00
43553;BME280;29153;42.696;23.218;2023-05-29T02:43:11;94251.23;;;11.46;100.00
43553;BME280;29153;42.696;23.218;2023-05-29T02:45:39;94246.72;;;11.47;100.00
43553;BME280;29153;42.696;23.218;2023-05-29T02:48:06;94257.82;;;11.49;100.00
43553;BME280;29153;42.696;23.218;2023-05-29T02:50:34;94253.63;;;11.45;100.00
43553;BME280;29153;42.696;23.218;2023-05-29T02:53:01;94247.42;;;11.33;100.00
43553;BME280;29153;42.696;23.218;2023-05-29T02:55:29;94248.59;;;11.22;100.00
43553;BME280;29153;42.696;23.218;2023-05-29T02:57:58;94253.95;;;11.17;100.00
43553;BME280;29153;42.696;23.218;2023-05-29T03:00:27;94253.20;;;11.14;100.00
43553;BME280;29153;42.696;23.218;2023-05-29T03:02:55;94252.46;;;11.09;100.00
43553;BME280;29153;42.696;23.218;2023-05-29T03:05:22;94252.98;;;11.11;100.00
43553;BME280;29153;42.696;23.218;2023-05-29T03:07:50;94252.46;;;11.09;100.00
43553;BME280;29153;42.696;23.218;2023-05-29T03:10:17;94250.08;;;11.10;100.00
43553;BME280;29153;42.696;23.218;2023-05-29T03:12:45;94251.66;;;11.11;100.00
43553;BME280;29153;42.696;23.218;2023-05-29T03:15:13;94250.65;;;11.07;100.00
43553;BME280;29153;42.696;23.218;2023-05-29T03:17:41;94247.73;;;11.06;100.00
43553;BME280;29153;42.696;23.218;2023-05-29T03:20:09;94257.27;;;11.07;100.00
43553;BME280;29153;42.696;23.218;2023-05-29T03:22:37;94253.78;;;11.11;100.00
43553;BME280;29153;42.696;23.218;2023-05-29T03:25:05;94252.41;;;11.14;100.00
43553;BME280;29153;42.696;23.218;2023-05-29T03:27:32;94244.41;;;11.19;100.00
43553;BME280;29153;42.696;23.218;2023-05-29T03:30:00;94248.11;;;11.20;100.00
43553;BME280;29153;42.696;23.218;2023-05-29T03:32:28;94253.64;;;11.21;100.00
43553;BME280;29153;42.696;23.218;2023-05-29T03:34:55;94256.22;;;11.29;100.00
43553;BME280;29153;42.696;23.218;2023-05-29T03:37:23;94257.29;;;11.28;100.00
43553;BME280;29153;42.696;23.218;2023-05-29T03:39:50;94257.46;;;11.34;100.00
43553;BME280;29153;42.696;23.218;2023-05-29T03:42:18;94260.89;;;11.37;100.00
43553;BME280;29153;42.696;23.218;2023-05-29T03:44:46;94262.22;;;11.37;100.00
43553;BME280;29153;42.696;23.218;2023-05-29T03:47:13;94274.91;;;11.40;100.00
43553;BME280;29153;42.696;23.218;2023-05-29T03:49:41;94278.83;;;11.45;100.00
43553;BME280;29153;42.696;23.218;2023-05-29T03:52:08;94280.58;;;11.52;100.00
43553;BME280;29153;42.696;23.218;2023-05-29T03:54:36;94279.95;;;11.60;100.00
43553;BME280;29153;42.696;23.218;2023-05-29T03:57:04;94277.17;;;11.70;100.00
43553;BME280;29153;42.696;23.218;2023-05-29T03:59:33;94282.19;;;11.74;100.00
43553;BME280;29153;42.696;23.218;2023-05-29T04:02:00;94288.11;;;11.88;100.00
43553;BME280;29153;42.696;23.218;2023-05-29T04:04:28;94286.88;;;11.99;100.00
43553;BME280;29153;42.696;23.218;2023-05-29T04:07:00;94291.98;;;12.14;100.00
43553;BME280;29153;42.696;23.218;2023-05-29T04:09:29;94292.79;;;12.30;100.00
43553;BME280;29153;42.696;23.218;2023-05-29T04:11:54;94303.47;;;12.44;100.00
43553;BME280;29153;42.696;23.218;2023-05-29T04:14:22;94299.75;;;12.61;100.00
43553;BME280;29153;42.696;23.218;2023-05-29T04:16:49;94298.48;;;12.72;100.00
43553;BME280;29153;42.696;23.218;2023-05-29T04:19:17;94312.88;;;12.85;100.00
43553;BME280;29153;42.696;23.218;2023-05-29T04:21:45;94313.73;;;12.97;100.00
43553;BME280;29153;42.696;23.218;2023-05-29T04:24:16;94311.25;;;13.03;100.00
43553;BME280;29153;42.696;23.218;2023-05-29T04:26:43;94310.65;;;13.06;100.00
43553;BME280;29153;42.696;23.218;2023-05-29T04:29:12;94313.03;;;13.07;100.00
43553;BME280;29153;42.696;23.218;2023-05-29T04:31:40;94310.51;;;13.16;100.00
43553;BME280;29153;42.696;23.218;2023-05-29T04:34:07;94308.02;;;13.22;100.00
43553;BME280;29153;42.696;23.218;2023-05-29T04:36:35;94305.66;;;13.34;100.00
43553;BME280;29153;42.696;23.218;2023-05-29T04:39:06;94306.73;;;13.47;100.00
43553;BME280;29153;42.696;23.218;2023-05-29T04:41:34;94297.73;;;13.56;100.00
43553;BME280;29153;42.696;23.218;2023-05-29T04:44:01;94302.33;;;13.67;100.00
43553;BME280;29153;42.696;23.218;2023-05-29T04:46:30;94300.58;;;13.74;100.00
43553;BME280;29153;42.696;23.218;2023-05-29T04:48:57;94309.16;;;13.84;100.00
43553;BME280;29153;42.696;23.218;2023-05-29T04:51:25;94311.30;;;13.96;100.00
43553;BME280;29153;42.696;23.218;2023-05-29T04:53:54;94313.64;;;14.11;100.00
43553;BME280;29153;42.696;23.218;2023-05-29T04:56:22;94315.59;;;14.19;100.00
43553;BME280;29153;42.696;23.218;2023-05-29T04:58:49;94317.47;;;14.30;100.00
43553;BME280;29153;42.696;23.218;2023-05-29T05:01:17;94317.47;;;14.30;100.00
43553;BME280;29153;42.696;23.218;2023-05-29T05:03:45;94325.11;;;14.34;100.00
43553;BME280;29153;42.696;23.218;2023-05-29T05:06:12;94331.69;;;14.39;100.00
43553;BME280;29153;42.696;23.218;2023-05-29T05:08:42;94334.89;;;14.38;100.00
43553;BME280;29153;42.696;23.218;2023-05-29T05:11:09;94333.88;;;14.37;100.00
43553;BME280;29153;42.696;23.218;2023-05-29T05:13:37;94339.03;;;14.44;100.00
43553;BME280;29153;42.696;23.218;2023-05-29T05:16:04;94346.48;;;14.45;100.00
43553;BME280;29153;42.696;23.218;2023-05-29T05:18:32;94346.48;;;14.45;100.00
43553;BME280;29153;42.696;23.218;2023-05-29T05:21:00;94355.81;;;14.45;100.00
43553;BME280;29153;42.696;23.218;2023-05-29T05:23:29;94358.66;;;14.48;100.00
43553;BME280;29153;42.696;23.218;2023-05-29T05:25:57;94355.34;;;14.54;100.00
43553;BME280;29153;42.696;23.218;2023-05-29T05:28:26;94349.33;;;14.59;100.00
43553;BME280;29153;42.696;23.218;2023-05-29T05:30:53;94349.33;;;14.59;100.00
43553;BME280;29153;42.696;23.218;2023-05-29T05:33:21;94345.03;;;14.72;100.00
43553;BME280;29153;42.696;23.218;2023-05-29T05:35:49;94344.97;;;14.86;100.00
43553;BME280;29153;42.696;23.218;2023-05-29T05:38:16;94356.48;;;14.95;100.00
43553;BME280;29153;42.696;23.218;2023-05-29T05:54:35;94357.80;;;15.06;100.00
43553;BME280;29153;42.696;23.218;2023-05-29T05:57:02;94360.02;;;14.93;100.00
43553;BME280;29153;42.696;23.218;2023-05-29T05:59:30;94366.38;;;14.83;100.00
43553;BME280;29153;42.696;23.218;2023-05-29T06:01:57;94366.38;;;14.83;100.00
43553;BME280;29153;42.696;23.218;2023-05-29T06:04:25;94364.97;;;14.86;100.00
43553;BME280;29153;42.696;23.218;2023-05-29T06:06:52;94366.02;;;14.87;100.00
43553;BME280;29153;42.696;23.218;2023-05-29T06:09:20;94362.47;;;15.12;100.00
43553;BME280;29153;42.696;23.218;2023-05-29T06:11:48;94364.08;;;15.32;100.00
43553;BME280;29153;42.696;23.218;2023-05-29T06:14:16;94363.09;;;15.70;100.00
43553;BME280;29153;42.696;23.218;2023-05-29T06:16:43;94359.11;;;15.99;100.00
43553;BME280;29153;42.696;23.218;2023-05-29T06:19:11;94363.72;;;16.24;99.86
43553;BME280;29153;42.696;23.218;2023-05-29T06:21:38;94372.39;;;16.38;99.03
43553;BME280;29153;42.696;23.218;2023-05-29T06:24:06;94312.75;;;16.03;96.32
43553;BME280;29153;42.696;23.218;2023-05-29T06:26:36;94379.16;;;16.53;96.83
43553;BME280;29153;42.696;23.218;2023-05-29T06:29:03;94369.22;;;16.64;97.09
43553;BME280;29153;42.696;23.218;2023-05-29T06:31:32;94380.13;;;16.65;94.35
43553;BME280;29153;42.696;23.218;2023-05-29T06:34:00;94378.01;;;16.82;94.82
43553;BME280;29153;42.696;23.218;2023-05-29T06:36:28;94376.52;;;16.87;94.08
43553;BME280;29153;42.696;23.218;2023-05-29T06:38:55;94381.40;;;17.02;91.30
43553;BME280;29153;42.696;23.218;2023-05-29T06:41:23;94377.28;;;17.13;93.03
43553;BME280;29153;42.696;23.218;2023-05-29T06:43:50;94382.19;;;17.35;94.67
43553;BME280;29153;42.696;23.218;2023-05-29T06:46:18;94379.47;;;17.60;93.22
43553;BME280;29153;42.696;23.218;2023-05-29T06:48:45;94379.44;;;17.69;93.02
43553;BME280;29153;42.696;23.218;2023-05-29T06:51:15;94381.47;;;17.95;91.78
43553;BME280;29153;42.696;23.218;2023-05-29T06:53:43;94387.41;;;17.86;89.66
43553;BME280;29153;42.696;23.218;2023-05-29T06:56:11;94390.37;;;17.93;89.48
43553;BME280;29153;42.696;23.218;2023-05-29T06:58:38;94390.84;;;17.72;87.85
43553;BME280;29153;42.696;23.218;2023-05-29T07:01:06;94386.55;;;17.88;89.27
43553;BME280;29153;42.696;23.218;2023-05-29T07:03:33;94388.82;;;17.92;88.77
43553;BME280;29153;42.696;23.218;2023-05-29T07:06:02;94389.42;;;18.12;88.06
43553;BME280;29153;42.696;23.218;2023-05-29T07:08:30;94389.33;;;18.00;85.70
43553;BME280;29153;42.696;23.218;2023-05-29T07:10:57;94384.05;;;17.98;88.02
43553;BME280;29153;42.696;23.218;2023-05-29T07:13:25;94380.77;;;18.07;89.87
43553;BME280;29153;42.696;23.218;2023-05-29T07:15:53;94379.14;;;18.14;91.13
43553;BME280;29153;42.696;23.218;2023-05-29T07:18:21;94392.59;;;18.06;86.87
43553;BME280;29153;42.696;23.218;2023-05-29T07:20:48;94390.08;;;18.09;87.02
43553;BME280;29153;42.696;23.218;2023-05-29T07:23:16;94387.09;;;18.32;87.79
43553;BME280;29153;42.696;23.218;2023-05-29T07:25:43;94379.64;;;18.52;88.67
43553;BME280;29153;42.696;23.218;2023-05-29T07:28:11;94392.09;;;18.42;84.84
43553;BME280;29153;42.696;23.218;2023-05-29T07:30:39;94389.59;;;18.37;84.93
43553;BME280;29153;42.696;23.218;2023-05-29T07:33:06;94382.59;;;18.44;86.22
43553;BME280;29153;42.696;23.218;2023-05-29T07:35:34;94380.18;;;19.07;85.42
43553;BME280;29153;42.696;23.218;2023-05-29T07:38:01;94392.93;;;19.37;81.31
43553;BME280;29153;42.696;23.218;2023-05-29T07:40:29;94383.91;;;19.48;84.72
43553;BME280;29153;42.696;23.218;2023-05-29T07:42:57;94386.41;;;19.59;82.65
43553;BME280;29153;42.696;23.218;2023-05-29T07:45:24;94381.70;;;19.62;83.58
43553;BME280;29153;42.696;23.218;2023-05-29T07:47:52;94386.42;;;19.38;79.21
43553;BME280;29153;42.696;23.218;2023-05-29T07:50:19;94389.66;;;19.05;78.08
43553;BME280;29153;42.696;23.218;2023-05-29T07:52:47;94381.92;;;18.97;79.60
43553;BME280;29153;42.696;23.218;2023-05-29T07:55:14;94384.48;;;18.94;80.62
43553;BME280;29153;42.696;23.218;2023-05-29T07:57:42;94380.93;;;19.02;78.50
43553;BME280;29153;42.696;23.218;2023-05-29T08:00:10;94379.63;;;19.14;80.27
43553;BME280;29153;42.696;23.218;2023-05-29T08:02:39;94387.96;;;19.00;77.08
43553;BME280;29153;42.696;23.218;2023-05-29T08:05:09;94388.58;;;18.85;77.75
43553;BME280;29153;42.696;23.218;2023-05-29T08:07:36;94381.24;;;18.94;80.19
43553;BME280;29153;42.696;23.218;2023-05-29T08:10:04;94380.98;;;19.14;79.29
43553;BME280;29153;42.696;23.218;2023-05-29T08:12:32;94382.91;;;19.26;79.42
43553;BME280;29153;42.696;23.218;2023-05-29T08:15:05;94379.83;;;19.87;78.51
43553;BME280;29153;42.696;23.218;2023-05-29T08:17:32;94379.89;;;20.75;79.39
43553;BME280;29153;42.696;23.218;2023-05-29T08:19:59;94390.34;;;21.45;75.60
43553;BME280;29153;42.696;23.218;2023-05-29T08:22:30;94384.92;;;21.29;71.64
43553;BME280;29153;42.696;23.218;2023-05-29T08:24:58;94389.05;;;21.32;69.05
43553;BME280;29153;42.696;23.218;2023-05-29T08:27:25;94390.70;;;21.09;70.87
43553;BME280;29153;42.696;23.218;2023-05-29T08:29:53;94388.56;;;20.75;72.75
43553;BME280;29153;42.696;23.218;2023-05-29T08:32:21;94334.45;;;20.28;71.66
43553;BME280;29153;42.696;23.218;2023-05-29T08:34:48;94385.56;;;20.52;72.98
43553;BME280;29153;42.696;23.218;2023-05-29T08:37:16;94385.36;;;20.45;77.53
43553;BME280;29153;42.696;23.218;2023-05-29T08:39:44;94380.11;;;20.36;76.81
43553;BME280;29153;42.696;23.218;2023-05-29T08:42:20;94385.36;;;20.39;77.21
43553;BME280;29153;42.696;23.218;2023-05-29T08:44:46;94393.50;;;20.24;72.59
43553;BME280;29153;42.696;23.218;2023-05-29T08:47:17;94378.28;;;20.47;72.19
43553;BME280;29153;42.696;23.218;2023-05-29T08:49:51;94377.36;;;21.13;75.29
43553;BME280;29153;42.696;23.218;2023-05-29T08:52:19;94375.34;;;21.91;73.87
43553;BME280;29153;42.696;23.218;2023-05-29T08:54:46;94386.08;;;22.18;65.40
43553;BME280;29153;42.696;23.218;2023-05-29T08:57:14;94370.33;;;22.55;70.23
43553;BME280;29153;42.696;23.218;2023-05-29T08:59:43;94376.32;;;22.64;65.15
43553;BME280;29153;42.696;23.218;2023-05-29T09:02:12;94376.11;;;22.38;67.04
43553;BME280;29153;42.696;23.218;2023-05-29T09:04:40;94372.80;;;22.04;67.87
43553;BME280;29153;42.696;23.218;2023-05-29T09:07:08;94370.25;;;21.79;64.94
43553;BME280;29153;42.696;23.218;2023-05-29T09:09:35;94368.70;;;21.57;69.92
43553;BME280;29153;42.696;23.218;2023-05-29T09:12:04;94368.19;;;21.51;65.61
43553;BME280;29153;42.696;23.218;2023-05-29T09:14:40;94367.27;;;21.31;66.06
43553;BME280;29153;42.696;23.218;2023-05-29T09:17:10;94359.81;;;21.41;67.45
43553;BME280;29153;42.696;23.218;2023-05-29T09:19:39;94355.77;;;21.19;66.81
43553;BME280;29153;42.696;23.218;2023-05-29T09:22:08;94350.88;;;21.03;67.14
43553;BME280;29153;42.696;23.218;2023-05-29T09:24:38;94350.27;;;20.81;67.00
43553;BME280;29153;42.696;23.218;2023-05-29T09:27:08;94351.14;;;21.25;66.34
43553;BME280;29153;42.696;23.218;2023-05-29T09:29:42;94344.59;;;21.32;64.75
43553;BME280;29153;42.696;23.218;2023-05-29T09:32:11;94341.20;;;21.08;63.41
43553;BME280;29153;42.696;23.218;2023-05-29T09:34:39;94343.77;;;20.82;64.56
43553;BME280;29153;42.696;23.218;2023-05-29T09:37:08;94336.90;;;20.91;64.39
43553;BME280;29153;42.696;23.218;2023-05-29T09:39:45;94333.05;;;20.98;64.90
43553;BME280;29153;42.696;23.218;2023-05-29T09:42:18;94328.27;;;20.85;63.07
43553;BME280;29153;42.696;23.218;2023-05-29T09:44:48;94316.38;;;21.36;72.26
43553;BME280;29153;42.696;23.218;2023-05-29T09:47:17;94311.94;;;21.81;70.86
43553;BME280;29153;42.696;23.218;2023-05-29T09:49:45;94317.12;;;22.21;68.42
43553;BME280;29153;42.696;23.218;2023-05-29T09:52:14;94323.19;;;22.24;65.90
43553;BME280;29153;42.696;23.218;2023-05-29T09:54:42;94321.56;;;22.39;63.63
43553;BME280;29153;42.696;23.218;2023-05-29T09:57:15;94319.70;;;22.58;59.25
43553;BME280;29153;42.696;23.218;2023-05-29T09:59:46;94276.60;;;22.46;58.70
43553;BME280;29153;42.696;23.218;2023-05-29T10:02:19;94308.27;;;23.23;62.27
43553;BME280;29153;42.696;23.218;2023-05-29T10:04:48;94303.33;;;23.28;59.93
43553;BME280;29153;42.696;23.218;2023-05-29T10:07:20;94315.28;;;22.50;57.65
43553;BME280;29153;42.696;23.218;2023-05-29T10:09:50;94312.36;;;22.49;55.56
43553;BME280;29153;42.696;23.218;2023-05-29T10:12:19;94305.15;;;22.73;57.72
43553;BME280;29153;42.696;23.218;2023-05-29T10:14:51;94305.02;;;23.04;57.08
43553;BME280;29153;42.696;23.218;2023-05-29T10:17:22;94300.45;;;22.98;58.30
43553;BME280;29153;42.696;23.218;2023-05-29T10:19:50;94297.59;;;23.10;61.07
43553;BME280;29153;42.696;23.218;2023-05-29T10:22:21;94305.16;;;22.92;56.39
43553;BME280;29153;42.696;23.218;2023-05-29T10:24:50;94308.63;;;22.38;55.84
43553;BME280;29153;42.696;23.218;2023-05-29T10:27:20;94304.59;;;22.29;55.80
43553;BME280;29153;42.696;23.218;2023-05-29T10:29:53;94297.38;;;22.61;62.57
43553;BME280;29153;42.696;23.218;2023-05-29T10:32:32;94301.69;;;22.37;53.82
43553;BME280;29153;42.696;23.218;2023-05-29T10:35:16;94298.38;;;22.18;57.61
43553;BME280;29153;42.696;23.218;2023-05-29T10:37:59;94295.72;;;22.03;57.59
43553;BME280;29153;42.696;23.218;2023-05-29T10:40:27;94300.75;;;21.89;54.94
43553;BME280;29153;42.696;23.218;2023-05-29T10:42:54;94292.22;;;22.28;54.87
43553;BME280;29153;42.696;23.218;2023-05-29T10:50:41;94279.42;;;23.40;58.72
43553;BME280;29153;42.696;23.218;2023-05-29T10:53:10;94285.02;;;23.41;57.03
43553;BME280;29153;42.696;23.218;2023-05-29T10:55:38;94283.01;;;23.15;52.04
43553;BME280;29153;42.696;23.218;2023-05-29T10:58:07;94278.88;;;22.89;53.19
43553;BME280;29153;42.696;23.218;2023-05-29T11:00:40;94272.52;;;23.10;54.46
43553;BME280;29153;42.696;23.218;2023-05-29T11:03:20;94273.81;;;23.29;50.10
43553;BME280;29153;42.696;23.218;2023-05-29T11:06:05;94268.47;;;23.00;50.76
43553;BME280;29153;42.696;23.218;2023-05-29T11:08:47;94261.56;;;22.64;55.07
43553;BME280;29153;42.696;23.218;2023-05-29T11:14:00;94249.62;;;23.04;53.95
43553;BME280;29153;42.696;23.218;2023-05-29T11:19:09;94253.91;;;22.86;52.16
43553;BME280;29153;42.696;23.218;2023-05-29T11:24:26;94250.46;;;22.31;53.96
43553;BME280;29153;42.696;23.218;2023-05-29T11:26:56;94240.23;;;22.59;57.25
43553;BME280;29153;42.696;23.218;2023-05-29T11:29:27;94239.83;;;22.77;51.06
43553;BME280;29153;42.696;23.218;2023-05-29T11:34:31;94243.30;;;22.48;54.83
43553;BME280;29153;42.696;23.218;2023-05-29T11:37:00;94239.72;;;22.25;60.73
43553;BME280;29153;42.696;23.218;2023-05-29T11:39:29;94243.67;;;22.02;54.41
43553;BME280;29153;42.696;23.218;2023-05-29T11:41:57;94236.61;;;22.23;57.99
43553;BME280;29153;42.696;23.218;2023-05-29T11:44:25;94233.98;;;22.55;53.50
43553;BME280;29153;42.696;23.218;2023-05-29T11:47:06;94229.65;;;22.89;52.04
43553;BME280;29153;42.696;23.218;2023-05-29T11:49:35;94232.41;;;23.02;54.54
43553;BME280;29153;42.696;23.218;2023-05-29T11:52:12;94227.67;;;22.96;56.73
43553;BME280;29153;42.696;23.218;2023-05-29T11:54:41;94227.87;;;22.68;55.87
43553;BME280;29153;42.696;23.218;2023-05-29T11:57:11;94235.14;;;22.54;56.86
43553;BME280;29153;42.696;23.218;2023-05-29T11:59:38;94228.38;;;22.35;56.66
43553;BME280;29153;42.696;23.218;2023-05-29T12:02:06;94227.97;;;22.33;59.11
43553;BME280;29153;42.696;23.218;2023-05-29T12:04:34;94233.07;;;22.29;58.13
43553;BME280;29153;42.696;23.218;2023-05-29T12:07:01;94220.06;;;22.34;60.02
43553;BME280;29153;42.696;23.218;2023-05-29T12:09:29;94211.11;;;22.30;57.54
43553;BME280;29153;42.696;23.218;2023-05-29T12:12:04;94212.92;;;22.71;58.08
43553;BME280;29153;42.696;23.218;2023-05-29T12:14:33;94216.94;;;22.61;54.93
43553;BME280;29153;42.696;23.218;2023-05-29T12:17:01;94213.16;;;22.17;57.88
43553;BME280;29153;42.696;23.218;2023-05-29T12:19:28;94208.41;;;22.11;61.22
43553;BME280;29153;42.696;23.218;2023-05-29T12:21:57;94202.84;;;22.04;61.78
43553;BME280;29153;42.696;23.218;2023-05-29T12:24:24;94204.91;;;22.01;61.55
43553;BME280;29153;42.696;23.218;2023-05-29T12:26:52;94204.79;;;22.22;60.07
43553;BME280;29153;42.696;23.218;2023-05-29T12:29:20;94222.20;;;22.44;62.46
43553;BME280;29153;42.696;23.218;2023-05-29T12:31:57;94240.16;;;22.46;64.35
43553;BME280;29153;42.696;23.218;2023-05-29T12:34:19;94246.95;;;22.21;68.63
43553;BME280;29153;42.696;23.218;2023-05-29T12:36:47;94244.92;;;21.58;76.95
43553;BME280;29153;42.696;23.218;2023-05-29T12:39:14;94246.55;;;20.94;79.14
43553;BME280;29153;42.696;23.218;2023-05-29T12:41:42;94245.39;;;20.51;84.07
43553;BME280;29153;42.696;23.218;2023-05-29T12:44:10;94245.67;;;20.34;86.07
43553;BME280;29153;42.696;23.218;2023-05-29T12:46:39;94248.41;;;20.04;86.88
43553;BME280;29153;42.696;23.218;2023-05-29T12:49:16;94250.89;;;19.90;90.35
43553;BME280;29153;42.696;23.218;2023-05-29T12:51:46;94254.48;;;19.82;88.53
43553;BME280;29153;42.696;23.218;2023-05-29T12:54:13;94252.92;;;19.69;89.99
43553;BME280;29153;42.696;23.218;2023-05-29T12:56:41;94244.98;;;19.67;94.62
43553;BME280;29153;42.696;23.218;2023-05-29T12:59:10;94252.70;;;19.68;94.08
43553;BME280;29153;42.696;23.218;2023-05-29T13:01:38;94254.13;;;19.90;95.64
43553;BME280;29153;42.696;23.218;2023-05-29T13:04:07;94252.23;;;19.96;91.03
43553;BME280;29153;42.696;23.218;2023-05-29T13:06:36;94258.17;;;19.96;91.20
43553;BME280;29153;42.696;23.218;2023-05-29T13:09:04;94265.36;;;19.98;89.02
43553;BME280;29153;42.696;23.218;2023-05-29T13:11:33;94261.65;;;19.96;88.74
43553;BME280;29153;42.696;23.218;2023-05-29T13:14:01;94254.51;;;20.28;88.98
43553;BME280;29153;42.696;23.218;2023-05-29T13:16:29;94257.70;;;20.58;86.69
43553;BME280;29153;42.696;23.218;2023-05-29T13:18:56;94256.04;;;20.81;85.86
43553;BME280;29153;42.696;23.218;2023-05-29T13:21:23;94276.40;;;20.95;81.95
43553;BME280;29153;42.696;23.218;2023-05-29T13:23:51;94274.91;;;20.97;79.26
43553;BME280;29153;42.696;23.218;2023-05-29T13:26:18;94273.88;;;21.02;80.54
43553;BME280;29153;42.696;23.218;2023-05-29T13:28:47;94278.28;;;20.72;77.06
43553;BME280;29153;42.696;23.218;2023-05-29T13:31:15;94269.31;;;20.74;80.53